Canoga Park, California
Current Conditions -  °F | °C
As of 10:51 AM on Thursday 18 Dec 2014 (Local Time) from KVNY Reporting Station
Overcast Overcast  
Wind Chill: 57°   Ceiling: 6500
Heat Index: 57°   Visibility: 10mi
Dew Point: 44°   Wind: 5mph
Humidity: 62%   Direction: 180°S
Pressure: 30.19"   Gusts: NA
Location:  34.2°N, 118.61°W
Report Text: KVNY 181851Z 18004KT 10SM BKN065 OVC085 14/07 A3019 RMK AO2 SLP222 T01390067
Loading
Personal Weather Stations






























Interactive Weather Map New forecast layout! Learn more

10-Day Weather Forecast

Advertisements
Track Severe Weather on mobile